sensor_id;sensor_type;location;lat;lon;timestamp;pressure;altitude;pressure_sealevel;temperature;humidity
59877;BME280;45749;51.140;17.184;2023-03-04T00:02:16;100282.97;;;0.05;98.23
59877;BME280;45749;51.140;17.184;2023-03-04T00:04:42;100278.63;;;0.05;97.96
59877;BME280;45749;51.140;17.184;2023-03-04T00:07:07;100270.69;;;0.10;98.17
59877;BME280;45749;51.140;17.184;2023-03-04T00:09:33;100275.88;;;0.10;98.15
59877;BME280;45749;51.140;17.184;2023-03-04T00:11:58;100270.69;;;0.10;98.17
59877;BME280;45749;51.140;17.184;2023-03-04T00:14:24;100262.97;;;0.08;98.31
59877;BME280;45749;51.140;17.184;2023-03-04T00:16:49;100267.31;;;0.08;98.21
59877;BME280;45749;51.140;17.184;2023-03-04T00:19:15;100268.16;;;0.08;98.05
59877;BME280;45749;51.140;17.184;2023-03-04T00:21:40;100269.91;;;0.08;98.09
59877;BME280;45749;51.140;17.184;2023-03-04T00:24:06;100262.97;;;0.08;98.30
59877;BME280;45749;51.140;17.184;2023-03-04T00:26:31;100269.91;;;0.08;98.25
59877;BME280;45749;51.140;17.184;2023-03-04T00:28:57;100257.78;;;0.08;98.48
59877;BME280;45749;51.140;17.184;2023-03-04T00:31:22;100247.38;;;0.08;98.24
59877;BME280;45749;51.140;17.184;2023-03-04T00:33:48;100236.09;;;0.09;98.23
59877;BME280;45749;51.140;17.184;2023-03-04T00:36:13;100237.75;;;0.12;98.30
59877;BME280;45749;51.140;17.184;2023-03-04T00:38:39;100232.56;;;0.12;98.23
59877;BME280;45749;51.140;17.184;2023-03-04T00:41:04;100225.63;;;0.12;97.98
59877;BME280;45749;51.140;17.184;2023-03-04T00:43:30;100217.81;;;0.14;97.96
59877;BME280;45749;51.140;17.184;2023-03-04T00:45:56;100217.75;;;0.15;97.99
59877;BME280;45749;51.140;17.184;2023-03-04T00:48:22;100215.97;;;0.17;98.10
59877;BME280;45749;51.140;17.184;2023-03-04T00:50:47;100219.41;;;0.18;97.77
59877;BME280;45749;51.140;17.184;2023-03-04T00:53:13;100219.31;;;0.21;97.78
59877;BME280;45749;51.140;17.184;2023-03-04T00:55:39;100220.09;;;0.23;97.71
59877;BME280;45749;51.140;17.184;2023-03-04T00:58:04;100214.81;;;0.26;97.98
59877;BME280;45749;51.140;17.184;2023-03-04T01:00:30;100212.22;;;0.26;97.64
59877;BME280;45749;51.140;17.184;2023-03-04T01:02:55;100213.03;;;0.28;97.75
59877;BME280;45749;51.140;17.184;2023-03-04T01:05:20;100213.03;;;0.28;97.69
59877;BME280;45749;51.140;17.184;2023-03-04T01:07:46;100200.06;;;0.28;97.70
59877;BME280;45749;51.140;17.184;2023-03-04T01:10:13;100200.88;;;0.30;97.47
59877;BME280;45749;51.140;17.184;2023-03-04T01:12:39;100195.66;;;0.30;97.74
59877;BME280;45749;51.140;17.184;2023-03-04T01:15:07;100183.56;;;0.29;97.71
59877;BME280;45749;51.140;17.184;2023-03-04T01:17:32;100177.50;;;0.30;97.95
59877;BME280;45749;51.140;17.184;2023-03-04T01:19:58;100186.97;;;0.31;97.81
59877;BME280;45749;51.140;17.184;2023-03-04T01:22:23;100171.41;;;0.31;98.10
59877;BME280;45749;51.140;17.184;2023-03-04T01:24:49;100171.41;;;0.31;97.53
59877;BME280;45749;51.140;17.184;2023-03-04T01:27:15;100164.44;;;0.33;97.54
59877;BME280;45749;51.140;17.184;2023-03-04T01:29:40;100169.53;;;0.36;97.78
59877;BME280;45749;51.140;17.184;2023-03-04T01:32:05;100160.81;;;0.37;97.72
59877;BME280;45749;51.140;17.184;2023-03-04T01:34:31;100157.31;;;0.38;97.53
59877;BME280;45749;51.140;17.184;2023-03-04T01:36:56;100146.94;;;0.38;97.62
59877;BME280;45749;51.140;17.184;2023-03-04T01:39:22;100145.16;;;0.40;97.48
59877;BME280;45749;51.140;17.184;2023-03-04T01:41:47;100138.19;;;0.41;97.40
59877;BME280;45749;51.140;17.184;2023-03-04T01:44:13;100128.66;;;0.41;97.23
59877;BME280;45749;51.140;17.184;2023-03-04T01:46:41;100128.63;;;0.43;97.27
59877;BME280;45749;51.140;17.184;2023-03-04T01:49:09;100117.31;;;0.44;97.18
59877;BME280;45749;51.140;17.184;2023-03-04T01:51:37;100120.69;;;0.46;97.39
59877;BME280;45749;51.140;17.184;2023-03-04T01:54:02;100119.81;;;0.47;97.30
59877;BME280;45749;51.140;17.184;2023-03-04T01:56:36;100117.16;;;0.49;97.21
59877;BME280;45749;51.140;17.184;2023-03-04T02:01:34;100116.16;;;0.53;96.79
59877;BME280;45749;51.140;17.184;2023-03-04T02:03:59;100115.25;;;0.54;96.57
59877;BME280;45749;51.140;17.184;2023-03-04T02:06:25;100106.56;;;0.55;96.75
59877;BME280;45749;51.140;17.184;2023-03-04T02:08:50;100106.53;;;0.56;96.35
59877;BME280;45749;51.140;17.184;2023-03-04T02:11:16;100116.91;;;0.56;96.24
59877;BME280;45749;51.140;17.184;2023-03-04T02:13:42;100104.78;;;0.57;96.22
59877;BME280;45749;51.140;17.184;2023-03-04T02:16:08;100116.81;;;0.59;95.70
59877;BME280;45749;51.140;17.184;2023-03-04T02:18:33;100116.75;;;0.61;95.72
59877;BME280;45749;51.140;17.184;2023-03-04T02:28:44;100114.84;;;0.66;95.56
59877;BME280;45749;51.140;17.184;2023-03-04T02:33:55;100108.66;;;0.68;95.49
59877;BME280;45749;51.140;17.184;2023-03-04T02:36:21;100100.88;;;0.68;95.41
59877;BME280;45749;51.140;17.184;2023-03-04T02:38:49;100103.47;;;0.68;95.48
59877;BME280;45749;51.140;17.184;2023-03-04T02:41:18;100095.75;;;0.67;95.31
59877;BME280;45749;51.140;17.184;2023-03-04T02:43:46;100090.50;;;0.68;95.14
59877;BME280;45749;51.140;17.184;2023-03-04T02:46:12;100090.50;;;0.68;94.96
59877;BME280;45749;51.140;17.184;2023-03-04T02:48:38;100103.47;;;0.68;95.03
59877;BME280;45749;51.140;17.184;2023-03-04T02:51:04;100082.69;;;0.68;94.32
59877;BME280;45749;51.140;17.184;2023-03-04T02:53:29;100081.00;;;0.67;94.15
59877;BME280;45749;51.140;17.184;2023-03-04T02:55:55;100077.50;;;0.68;94.25
59877;BME280;45749;51.140;17.184;2023-03-04T02:58:20;100078.34;;;0.69;93.96
59877;BME280;45749;51.140;17.184;2023-03-04T03:00:46;100072.31;;;0.68;93.85
59877;BME280;45749;51.140;17.184;2023-03-04T03:03:12;100075.75;;;0.69;94.14
59877;BME280;45749;51.140;17.184;2023-03-04T03:05:38;100071.44;;;0.69;93.79
59877;BME280;45749;51.140;17.184;2023-03-04T03:08:04;100073.16;;;0.69;94.14
59877;BME280;45749;51.140;17.184;2023-03-04T03:10:29;100082.66;;;0.70;93.11
59877;BME280;45749;51.140;17.184;2023-03-04T03:12:55;100070.56;;;0.69;93.52
59877;BME280;45749;51.140;17.184;2023-03-04T03:15:20;100069.72;;;0.68;93.24
59877;BME280;45749;51.140;17.184;2023-03-04T03:17:46;100074.88;;;0.70;93.05
59877;BME280;45749;51.140;17.184;2023-03-04T03:20:12;100063.63;;;0.69;93.47
59877;BME280;45749;51.140;17.184;2023-03-04T03:22:39;100063.63;;;0.69;93.05
59877;BME280;45749;51.140;17.184;2023-03-04T03:25:05;100063.63;;;0.69;93.39
59877;BME280;45749;51.140;17.184;2023-03-04T03:27:31;100068.75;;;0.71;93.20
59877;BME280;45749;51.140;17.184;2023-03-04T03:29:57;100067.91;;;0.70;92.94
59877;BME280;45749;51.140;17.184;2023-03-04T03:32:22;100059.28;;;0.70;92.82
59877;BME280;45749;51.140;17.184;2023-03-04T03:34:47;100064.47;;;0.70;92.88
59877;BME280;45749;51.140;17.184;2023-03-04T03:37:13;100051.53;;;0.68;93.19
59877;BME280;45749;51.140;17.184;2023-03-04T03:39:39;100064.41;;;0.72;93.00
59877;BME280;45749;51.140;17.184;2023-03-04T03:42:04;100050.53;;;0.73;93.00
59877;BME280;45749;51.140;17.184;2023-03-04T03:44:30;100060.03;;;0.74;92.67
59877;BME280;45749;51.140;17.184;2023-03-04T03:46:56;100064.38;;;0.73;92.72
59877;BME280;45749;51.140;17.184;2023-03-04T03:49:21;100051.38;;;0.73;92.63
59877;BME280;45749;51.140;17.184;2023-03-04T03:51:46;100044.44;;;0.74;92.69
59877;BME280;45749;51.140;17.184;2023-03-04T03:54:12;100041.00;;;0.73;92.82
59877;BME280;45749;51.140;17.184;2023-03-04T03:56:37;100046.97;;;0.75;92.82
59877;BME280;45749;51.140;17.184;2023-03-04T03:59:02;100039.13;;;0.77;92.65
59877;BME280;45749;51.140;17.184;2023-03-04T04:01:28;100040.81;;;0.78;92.86
59877;BME280;45749;51.140;17.184;2023-03-04T04:03:53;100033.88;;;0.78;92.40
59877;BME280;45749;51.140;17.184;2023-03-04T04:06:19;100033.03;;;0.78;92.52
59877;BME280;45749;51.140;17.184;2023-03-04T04:08:44;100039.88;;;0.80;92.87
59877;BME280;45749;51.140;17.184;2023-03-04T04:11:11;100027.78;;;0.79;92.67
59877;BME280;45749;51.140;17.184;2023-03-04T04:13:37;100038.03;;;0.82;92.49
59877;BME280;45749;51.140;17.184;2023-03-04T04:16:04;100027.66;;;0.82;92.34
59877;BME280;45749;51.140;17.184;2023-03-04T04:18:30;100026.88;;;0.80;92.10
59877;BME280;45749;51.140;17.184;2023-03-04T04:20:55;100025.97;;;0.81;91.78
59877;BME280;45749;51.140;17.184;2023-03-04T04:23:21;100029.41;;;0.82;92.41
59877;BME280;45749;51.140;17.184;2023-03-04T04:25:46;100013.81;;;0.82;92.33
59877;BME280;45749;51.140;17.184;2023-03-04T04:28:12;100017.22;;;0.84;91.94
59877;BME280;45749;51.140;17.184;2023-03-04T04:30:38;100018.06;;;0.84;91.90
59877;BME280;45749;51.140;17.184;2023-03-04T04:33:04;100009.41;;;0.84;92.06
59877;BME280;45749;51.140;17.184;2023-03-04T04:35:31;100011.84;;;0.88;92.23
59877;BME280;45749;51.140;17.184;2023-03-04T04:37:57;100005.78;;;0.88;91.71
59877;BME280;45749;51.140;17.184;2023-03-04T04:40:22;100003.19;;;0.88;92.04
59877;BME280;45749;51.140;17.184;2023-03-04T04:42:48;100010.94;;;0.89;91.90
59877;BME280;45749;51.140;17.184;2023-03-04T04:45:13;99993.59;;;0.90;91.91
59877;BME280;45749;51.140;17.184;2023-03-04T04:47:39;99997.84;;;0.92;91.89
59877;BME280;45749;51.140;17.184;2023-03-04T04:50:05;99990.06;;;0.92;92.11
59877;BME280;45749;51.140;17.184;2023-03-04T04:52:31;99989.13;;;0.93;92.00
59877;BME280;45749;51.140;17.184;2023-03-04T04:54:56;99986.53;;;0.93;91.79
59877;BME280;45749;51.140;17.184;2023-03-04T04:57:21;99982.19;;;0.94;91.84
59877;BME280;45749;51.140;17.184;2023-03-04T04:59:47;99975.22;;;0.94;92.10
59877;BME280;45749;51.140;17.184;2023-03-04T05:02:12;99977.81;;;0.94;91.74
59877;BME280;45749;51.140;17.184;2023-03-04T05:04:38;99973.56;;;0.93;91.50
59877;BME280;45749;51.140;17.184;2023-03-04T05:07:03;99971.75;;;0.96;91.89
59877;BME280;45749;51.140;17.184;2023-03-04T05:09:29;99974.28;;;0.97;91.85
59877;BME280;45749;51.140;17.184;2023-03-04T05:11:54;99982.97;;;0.96;91.49
59877;BME280;45749;51.140;17.184;2023-03-04T05:14:19;99982.91;;;0.98;91.53
59877;BME280;45749;51.140;17.184;2023-03-04T05:16:45;99977.59;;;1.01;91.45
59877;BME280;45749;51.140;17.184;2023-03-04T05:19:10;99987.06;;;1.02;90.83
59877;BME280;45749;51.140;17.184;2023-03-04T05:21:35;99991.38;;;1.03;90.91
59877;BME280;45749;51.140;17.184;2023-03-04T05:24:01;99982.69;;;1.04;90.91
59877;BME280;45749;51.140;17.184;2023-03-04T05:26:26;99997.34;;;1.05;90.56
59877;BME280;45749;51.140;17.184;2023-03-04T05:28:52;99982.59;;;1.05;90.55
59877;BME280;45749;51.140;17.184;2023-03-04T05:31:17;99984.31;;;1.06;90.63
59877;BME280;45749;51.140;17.184;2023-03-04T05:33:42;99977.38;;;1.07;90.81
59877;BME280;45749;51.140;17.184;2023-03-04T05:36:08;99989.44;;;1.08;90.49
59877;BME280;45749;51.140;17.184;2023-03-04T05:38:34;99973.84;;;1.08;90.80
59877;BME280;45749;51.140;17.184;2023-03-04T05:41:04;99969.44;;;1.10;90.65
59877;BME280;45749;51.140;17.184;2023-03-04T05:43:31;99983.25;;;1.12;90.26
59877;BME280;45749;51.140;17.184;2023-03-04T05:45:58;99968.41;;;1.14;90.74
59877;BME280;45749;51.140;17.184;2023-03-04T05:48:24;99972.78;;;1.13;90.04
59877;BME280;45749;51.140;17.184;2023-03-04T05:50:54;99980.44;;;1.16;90.31
59877;BME280;45749;51.140;17.184;2023-03-04T05:53:20;99976.94;;;1.17;89.99
59877;BME280;45749;51.140;17.184;2023-03-04T05:55:46;99970.78;;;1.20;90.10
59877;BME280;45749;51.140;17.184;2023-03-04T05:58:12;99964.66;;;1.21;89.82
59877;BME280;45749;51.140;17.184;2023-03-04T06:00:37;99988.84;;;1.23;90.25
59877;BME280;45749;51.140;17.184;2023-03-04T06:03:03;99979.25;;;1.25;90.13
59877;BME280;45749;51.140;17.184;2023-03-04T06:05:28;99979.25;;;1.25;90.06
59877;BME280;45749;51.140;17.184;2023-03-04T06:07:53;99980.84;;;1.28;90.25
59877;BME280;45749;51.140;17.184;2023-03-04T06:10:19;99975.66;;;1.28;89.78
59877;BME280;45749;51.140;17.184;2023-03-04T06:12:44;99973.00;;;1.29;89.36
59877;BME280;45749;51.140;17.184;2023-03-04T06:15:10;99965.97;;;1.31;89.85
59877;BME280;45749;51.140;17.184;2023-03-04T06:17:38;99977.19;;;1.33;89.80
59877;BME280;45749;51.140;17.184;2023-03-04T06:20:04;99980.63;;;1.34;89.41
59877;BME280;45749;51.140;17.184;2023-03-04T06:22:31;99977.97;;;1.35;89.73
59877;BME280;45749;51.140;17.184;2023-03-04T06:24:57;99977.06;;;1.36;89.87
59877;BME280;45749;51.140;17.184;2023-03-04T06:27:22;99976.97;;;1.38;89.78
59877;BME280;45749;51.140;17.184;2023-03-04T06:29:47;99991.75;;;1.37;89.54
59877;BME280;45749;51.140;17.184;2023-03-04T06:32:13;99982.13;;;1.39;89.29
59877;BME280;45749;51.140;17.184;2023-03-04T06:34:38;99982.97;;;1.40;89.47
59877;BME280;45749;51.140;17.184;2023-03-04T06:37:04;99995.94;;;1.42;89.31
59877;BME280;45749;51.140;17.184;2023-03-04T06:39:29;99989.81;;;1.43;89.08
59877;BME280;45749;51.140;17.184;2023-03-04T06:41:54;99992.41;;;1.43;88.56
59877;BME280;45749;51.140;17.184;2023-03-04T06:44:20;100005.34;;;1.44;89.35
59877;BME280;45749;51.140;17.184;2023-03-04T06:46:45;99991.44;;;1.45;89.63
59877;BME280;45749;51.140;17.184;2023-03-04T06:49:11;100001.78;;;1.47;89.32
59877;BME280;45749;51.140;17.184;2023-03-04T06:51:36;100003.47;;;1.48;89.62
59877;BME280;45749;51.140;17.184;2023-03-04T06:54:02;99996.53;;;1.48;89.20
59877;BME280;45749;51.140;17.184;2023-03-04T06:56:27;100003.41;;;1.49;89.65
59877;BME280;45749;51.140;17.184;2023-03-04T06:58:53;100006.84;;;1.50;89.38
59877;BME280;45749;51.140;17.184;2023-03-04T07:01:21;100018.06;;;1.52;89.39
59877;BME280;45749;51.140;17.184;2023-03-04T07:03:49;100012.84;;;1.52;89.52
59877;BME280;45749;51.140;17.184;2023-03-04T07:06:17;100011.94;;;1.53;89.30
59877;BME280;45749;51.140;17.184;2023-03-04T07:08:43;100016.22;;;1.54;89.57
59877;BME280;45749;51.140;17.184;2023-03-04T07:11:09;100017.06;;;1.54;89.40
59877;BME280;45749;51.140;17.184;2023-03-04T07:13:35;100013.63;;;1.54;89.87
59877;BME280;45749;51.140;17.184;2023-03-04T07:16:08;100009.97;;;1.58;90.04
59877;BME280;45749;51.140;17.184;2023-03-04T07:18:34;100014.28;;;1.59;89.83
59877;BME280;45749;51.140;17.184;2023-03-04T07:20:59;100022.00;;;1.60;89.87
59877;BME280;45749;51.140;17.184;2023-03-04T07:23:25;100018.44;;;1.63;90.04
59877;BME280;45749;51.140;17.184;2023-03-04T07:25:51;100004.53;;;1.64;89.86
59877;BME280;45749;51.140;17.184;2023-03-04T07:28:16;100004.53;;;1.64;90.13
59877;BME280;45749;51.140;17.184;2023-03-04T07:30:42;100014.81;;;1.67;90.16
59877;BME280;45749;51.140;17.184;2023-03-04T07:33:07;100009.59;;;1.67;90.00
59877;BME280;45749;51.140;17.184;2023-03-04T07:35:33;100012.16;;;1.69;89.95
59877;BME280;45749;51.140;17.184;2023-03-04T07:37:58;100004.28;;;1.70;90.38
59877;BME280;45749;51.140;17.184;2023-03-04T07:40:24;100004.25;;;1.72;90.41
59877;BME280;45749;51.140;17.184;2023-03-04T07:42:50;100004.16;;;1.73;90.20
59877;BME280;45749;51.140;17.184;2023-03-04T07:45:16;100004.94;;;1.75;90.31
59877;BME280;45749;51.140;17.184;2023-03-04T07:47:41;99999.75;;;1.75;90.42
59877;BME280;45749;51.140;17.184;2023-03-04T07:50:08;100001.44;;;1.76;90.55
59877;BME280;45749;51.140;17.184;2023-03-04T07:52:37;99987.47;;;1.79;90.75
59877;BME280;45749;51.140;17.184;2023-03-04T07:55:03;99982.19;;;1.80;90.82
59877;BME280;45749;51.140;17.184;2023-03-04T07:57:28;99988.16;;;1.82;90.84
59877;BME280;45749;51.140;17.184;2023-03-04T07:59:53;99994.16;;;1.84;90.72
59877;BME280;45749;51.140;17.184;2023-03-04T08:02:19;99993.28;;;1.84;90.85
59877;BME280;45749;51.140;17.184;2023-03-04T08:04:44;99986.28;;;1.86;91.11
59877;BME280;45749;51.140;17.184;2023-03-04T08:07:10;99983.59;;;1.87;90.82
59877;BME280;45749;51.140;17.184;2023-03-04T08:09:35;99989.47;;;1.93;91.07
59877;BME280;45749;51.140;17.184;2023-03-04T08:12:00;99998.19;;;1.92;91.46
59877;BME280;45749;51.140;17.184;2023-03-04T08:14:26;99981.66;;;1.93;91.42
59877;BME280;45749;51.140;17.184;2023-03-04T08:16:51;99983.34;;;1.94;91.51
59877;BME280;45749;51.140;17.184;2023-03-04T08:19:17;99988.56;;;1.94;91.54
59877;BME280;45749;51.140;17.184;2023-03-04T08:21:42;99990.31;;;1.93;91.79
59877;BME280;45749;51.140;17.184;2023-03-04T08:24:09;99993.75;;;1.94;92.05
59877;BME280;45749;51.140;17.184;2023-03-04T08:26:37;99976.47;;;1.93;91.89
59877;BME280;45749;51.140;17.184;2023-03-04T08:29:07;99977.25;;;1.95;92.36
59877;BME280;45749;51.140;17.184;2023-03-04T08:31:33;99968.53;;;1.96;92.22
59877;BME280;45749;51.140;17.184;2023-03-04T08:34:00;99973.59;;;1.99;92.35
59877;BME280;45749;51.140;17.184;2023-03-04T08:36:26;99975.22;;;2.01;92.40
59877;BME280;45749;51.140;17.184;2023-03-04T08:38:51;99970.06;;;2.00;92.36
59877;BME280;45749;51.140;17.184;2023-03-04T08:41:17;99961.16;;;2.05;92.50
59877;BME280;45749;51.140;17.184;2023-03-04T08:43:42;99970.59;;;2.08;92.64
59877;BME280;45749;51.140;17.184;2023-03-04T08:46:08;99972.28;;;2.09;92.44
59877;BME280;45749;51.140;17.184;2023-03-04T08:48:33;99966.13;;;2.11;92.46
59877;BME280;45749;51.140;17.184;2023-03-04T08:50:59;99973.84;;;2.13;92.65
59877;BME280;45749;51.140;17.184;2023-03-04T08:53:24;99968.50;;;2.16;92.54
59877;BME280;45749;51.140;17.184;2023-03-04T08:55:50;99974.56;;;2.17;92.69
59877;BME280;45749;51.140;17.184;2023-03-04T08:58:16;99975.34;;;2.19;92.36
59877;BME280;45749;51.140;17.184;2023-03-04T09:00:45;99975.25;;;2.20;92.66
59877;BME280;45749;51.140;17.184;2023-03-04T09:03:13;99959.59;;;2.22;92.63
59877;BME280;45749;51.140;17.184;2023-03-04T09:05:39;99966.44;;;2.24;92.79
59877;BME280;45749;51.140;17.184;2023-03-04T09:08:04;99963.69;;;2.27;92.76
59877;BME280;45749;51.140;17.184;2023-03-04T09:10:30;99964.44;;;2.29;92.42
59877;BME280;45749;51.140;17.184;2023-03-04T09:12:57;99961.78;;;2.31;92.40
59877;BME280;45749;51.140;17.184;2023-03-04T09:15:22;99959.94;;;2.33;92.55
59877;BME280;45749;51.140;17.184;2023-03-04T09:17:47;99959.91;;;2.34;92.63
59877;BME280;45749;51.140;17.184;2023-03-04T09:20:13;99962.38;;;2.38;92.66
59877;BME280;45749;51.140;17.184;2023-03-04T09:22:39;99963.25;;;2.37;92.70
59877;BME280;45749;51.140;17.184;2023-03-04T09:25:06;99965.72;;;2.40;92.84
59877;BME280;45749;51.140;17.184;2023-03-04T09:27:32;99964.75;;;2.42;92.84
59877;BME280;45749;51.140;17.184;2023-03-04T09:29:57;99968.06;;;2.46;92.88
59877;BME280;45749;51.140;17.184;2023-03-04T09:32:23;99961.03;;;2.48;92.63
59877;BME280;45749;51.140;17.184;2023-03-04T09:34:49;99969.47;;;2.53;92.60
59877;BME280;45749;51.140;17.184;2023-03-04T09:37:14;99964.25;;;2.53;92.77
59877;BME280;45749;51.140;17.184;2023-03-04T09:39:39;99974.50;;;2.57;92.72
59877;BME280;45749;51.140;17.184;2023-03-04T09:42:06;99961.38;;;2.59;92.50
59877;BME280;45749;51.140;17.184;2023-03-04T09:44:37;99962.16;;;2.61;92.72
59877;BME280;45749;51.140;17.184;2023-03-04T09:47:15;99966.31;;;2.65;92.66
59877;BME280;45749;51.140;17.184;2023-03-04T09:49:47;99961.91;;;2.67;92.97
59877;BME280;45749;51.140;17.184;2023-03-04T10:08:38;99951.34;;;2.70;94.68
59877;BME280;45749;51.140;17.184;2023-03-04T10:11:27;99952.19;;;2.71;95.30
59877;BME280;45749;51.140;17.184;2023-03-04T10:13:59;99936.47;;;2.72;95.22
59877;BME280;45749;51.140;17.184;2023-03-04T10:16:50;99932.72;;;2.78;95.50
59877;BME280;45749;51.140;17.184;2023-03-04T10:25:14;99915.97;;;2.84;95.98
59877;BME280;45749;51.140;17.184;2023-03-04T10:27:41;99908.84;;;2.87;95.54
59877;BME280;45749;51.140;17.184;2023-03-04T10:32:50;99922.44;;;2.94;95.92
59877;BME280;45749;51.140;17.184;2023-03-04T10:35:21;99906.66;;;2.97;95.85
59877;BME280;45749;51.140;17.184;2023-03-04T10:37:49;99909.88;;;3.02;95.86
59877;BME280;45749;51.140;17.184;2023-03-04T10:40:23;99901.00;;;3.06;95.75
59877;BME280;45749;51.140;17.184;2023-03-04T10:42:51;99899.84;;;3.12;95.66
59877;BME280;45749;51.140;17.184;2023-03-04T10:45:25;99901.47;;;3.14;95.40
59877;BME280;45749;51.140;17.184;2023-03-04T10:47:55;99905.75;;;3.15;95.20
59877;BME280;45749;51.140;17.184;2023-03-04T10:50:27;99890.88;;;3.17;95.33
59877;BME280;45749;51.140;17.184;2023-03-04T10:52:54;99892.34;;;3.23;95.35
59877;BME280;45749;51.140;17.184;2023-03-04T10:55:23;99875.69;;;3.25;95.49
59877;BME280;45749;51.140;17.184;2023-03-04T10:57:53;99878.94;;;3.31;95.19
59877;BME280;45749;51.140;17.184;2023-03-04T11:00:30;99891.81;;;3.34;95.14
59877;BME280;45749;51.140;17.184;2023-03-04T11:06:23;99875.94;;;3.38;94.74
59877;BME280;45749;51.140;17.184;2023-03-04T11:08:55;99881.00;;;3.41;94.86
59877;BME280;45749;51.140;17.184;2023-03-04T11:13:51;99887.81;;;3.44;94.50
59877;BME280;45749;51.140;17.184;2023-03-04T11:16:30;99881.63;;;3.46;94.22
59877;BME280;45749;51.140;17.184;2023-03-04T11:19:03;99880.63;;;3.49;94.29
59877;BME280;45749;51.140;17.184;2023-03-04T11:21:33;99879.59;;;3.51;94.35
59877;BME280;45749;51.140;17.184;2023-03-04T11:24:04;99878.63;;;3.54;94.02
59877;BME280;45749;51.140;17.184;2023-03-04T11:31:54;99876.31;;;3.65;93.99
59877;BME280;45749;51.140;17.184;2023-03-04T11:37:29;99884.91;;;3.67;93.84
59877;BME280;45749;51.140;17.184;2023-03-04T11:40:00;99872.63;;;3.69;94.03
59877;BME280;45749;51.140;17.184;2023-03-04T11:42:43;99872.53;;;3.71;94.35
59877;BME280;45749;51.140;17.184;2023-03-04T11:45:12;99878.53;;;3.73;94.46
59877;BME280;45749;51.140;17.184;2023-03-04T11:50:42;99860.00;;;3.78;94.09
59877;BME280;45749;51.140;17.184;2023-03-04T11:53:36;99863.06;;;3.86;94.24
59877;BME280;45749;51.140;17.184;2023-03-04T11:56:29;99850.44;;;3.94;94.03
59877;BME280;45749;51.140;17.184;2023-03-04T12:02:33;99849.88;;;4.05;93.16
59877;BME280;45749;51.140;17.184;2023-03-04T12:10:24;99844.25;;;4.12;92.81
59877;BME280;45749;51.140;17.184;2023-03-04T12:15:57;99855.44;;;4.14;93.02
59877;BME280;45749;51.140;17.184;2023-03-04T12:31:41;99825.84;;;4.31;92.48
59877;BME280;45749;51.140;17.184;2023-03-04T12:39:32;99815.19;;;4.50;92.38
59877;BME280;45749;51.140;17.184;2023-03-04T12:45:02;99824.34;;;4.73;92.20
59877;BME280;45749;51.140;17.184;2023-03-04T12:53:26;99823.19;;;4.79;92.84
59877;BME280;45749;51.140;17.184;2023-03-04T12:55:55;99817.94;;;4.79;92.84
59877;BME280;45749;51.140;17.184;2023-03-04T12:58:25;99824.84;;;4.80;93.10
59877;BME280;45749;51.140;17.184;2023-03-04T13:00:54;99809.09;;;4.81;92.68
59877;BME280;45749;51.140;17.184;2023-03-04T13:17:01;99828.75;;;4.73;92.37
59877;BME280;45749;51.140;17.184;2023-03-04T13:22:32;99826.16;;;4.57;93.54
59877;BME280;45749;51.140;17.184;2023-03-04T13:25:45;99816.63;;;4.56;94.53
59877;BME280;45749;51.140;17.184;2023-03-04T13:28:21;99812.59;;;4.50;94.30
59877;BME280;45749;51.140;17.184;2023-03-04T13:44:34;99809.28;;;4.62;94.78
59877;BME280;45749;51.140;17.184;2023-03-04T13:47:20;99806.56;;;4.80;95.83
59877;BME280;45749;51.140;17.184;2023-03-04T13:49:46;99801.47;;;4.92;95.39
59877;BME280;45749;51.140;17.184;2023-03-04T13:52:38;99804.00;;;4.94;93.77
59877;BME280;45749;51.140;17.184;2023-03-04T13:55:30;99797.00;;;4.94;93.59
59877;BME280;45749;51.140;17.184;2023-03-04T13:57:57;99793.63;;;4.92;92.78
59877;BME280;45749;51.140;17.184;2023-03-04T14:00:23;99791.28;;;4.88;92.78
59877;BME280;45749;51.140;17.184;2023-03-04T14:02:49;99789.88;;;4.82;92.84
59877;BME280;45749;51.140;17.184;2023-03-04T14:05:14;99792.47;;;4.82;93.14
59877;BME280;45749;51.140;17.184;2023-03-04T14:07:40;99797.69;;;4.82;93.14
59877;BME280;45749;51.140;17.184;2023-03-04T14:12:47;99787.19;;;4.84;93.53
59877;BME280;45749;51.140;17.184;2023-03-04T14:15:25;99789.78;;;4.84;93.09
59877;BME280;45749;51.140;17.184;2023-03-04T14:17:56;99787.25;;;4.82;93.00
59877;BME280;45749;51.140;17.184;2023-03-04T14:20:39;99784.63;;;4.82;93.24
59877;BME280;45749;51.140;17.184;2023-03-04T14:23:28;99780.41;;;4.80;92.93
59877;BME280;45749;51.140;17.184;2023-03-04T14:26:12;99774.28;;;4.81;93.31
59877;BME280;45749;51.140;17.184;2023-03-04T14:31:53;99772.41;;;4.83;93.23
59877;BME280;45749;51.140;17.184;2023-03-04T14:34:28;99766.25;;;4.84;93.03
59877;BME280;45749;51.140;17.184;2023-03-04T14:36:56;99773.16;;;4.85;93.15
59877;BME280;45749;51.140;17.184;2023-03-04T14:39:29;99782.50;;;4.89;93.25
59877;BME280;45749;51.140;17.184;2023-03-04T14:41:58;99774.50;;;4.92;93.08
59877;BME280;45749;51.140;17.184;2023-03-04T14:44:33;99776.94;;;4.95;92.54
59877;BME280;45749;51.140;17.184;2023-03-04T14:47:19;99779.53;;;4.95;92.44
59877;BME280;45749;51.140;17.184;2023-03-04T14:49:46;99797.00;;;4.94;92.59
59877;BME280;45749;51.140;17.184;2023-03-04T14:55:02;99780.41;;;4.80;92.18
59877;BME280;45749;51.140;17.184;2023-03-04T14:57:33;99788.22;;;4.65;92.84
59877;BME280;45749;51.140;17.184;2023-03-04T15:03:36;99776.78;;;4.36;94.11
59877;BME280;45749;51.140;17.184;2023-03-04T15:05:36;99777.94;;;4.31;94.85
59877;BME280;45749;51.140;17.184;2023-03-04T15:08:31;99773.75;;;4.28;94.77
59877;BME280;45749;51.140;17.184;2023-03-04T15:11:01;99774.78;;;4.26;95.17
59877;BME280;45749;51.140;17.184;2023-03-04T15:13:47;99772.16;;;4.26;95.24
59877;BME280;45749;51.140;17.184;2023-03-04T15:16:15;99773.16;;;4.23;94.80